sensor_id;sensor_type;location;lat;lon;timestamp;temperature;humidity
5027;DHT22;2532;52.480;13.354;2022-08-20T00:01:38;22.80;99.90
5027;DHT22;2532;52.480;13.354;2022-08-20T00:04:05;22.70;99.90
5027;DHT22;2532;52.480;13.354;2022-08-20T00:06:33;22.70;99.90
5027;DHT22;2532;52.480;13.354;2022-08-20T00:09:00;22.60;99.90
5027;DHT22;2532;52.480;13.354;2022-08-20T00:11:27;22.60;99.90
5027;DHT22;2532;52.480;13.354;2022-08-20T00:13:57;22.60;99.90
5027;DHT22;2532;52.480;13.354;2022-08-20T00:16:28;22.60;99.90
5027;DHT22;2532;52.480;13.354;2022-08-20T00:18:58;22.60;99.90
5027;DHT22;2532;52.480;13.354;2022-08-20T00:21:25;22.60;99.90
5027;DHT22;2532;52.480;13.354;2022-08-20T00:23:54;22.50;99.90
5027;DHT22;2532;52.480;13.354;2022-08-20T00:26:22;22.50;99.90
5027;DHT22;2532;52.480;13.354;2022-08-20T00:28:50;22.50;99.90
5027;DHT22;2532;52.480;13.354;2022-08-20T00:31:18;22.60;99.90
5027;DHT22;2532;52.480;13.354;2022-08-20T00:33:46;22.60;99.90
5027;DHT22;2532;52.480;13.354;2022-08-20T00:36:15;22.60;99.90
5027;DHT22;2532;52.480;13.354;2022-08-20T00:38:43;22.60;99.90
5027;DHT22;2532;52.480;13.354;2022-08-20T00:41:13;22.60;99.90
5027;DHT22;2532;52.480;13.354;2022-08-20T00:43:43;22.60;99.90
5027;DHT22;2532;52.480;13.354;2022-08-20T00:46:13;22.60;99.90
5027;DHT22;2532;52.480;13.354;2022-08-20T00:48:43;22.50;99.90
5027;DHT22;2532;52.480;13.354;2022-08-20T00:51:16;22.50;99.90
5027;DHT22;2532;52.480;13.354;2022-08-20T00:53:44;22.40;99.90
5027;DHT22;2532;52.480;13.354;2022-08-20T00:56:12;22.40;99.90
5027;DHT22;2532;52.480;13.354;2022-08-20T00:58:40;22.30;99.90
5027;DHT22;2532;52.480;13.354;2022-08-20T01:01:08;22.20;99.90
5027;DHT22;2532;52.480;13.354;2022-08-20T01:03:35;22.20;99.90
5027;DHT22;2532;52.480;13.354;2022-08-20T01:06:03;22.10;99.90
5027;DHT22;2532;52.480;13.354;2022-08-20T01:08:30;22.00;99.90
5027;DHT22;2532;52.480;13.354;2022-08-20T01:10:57;22.10;99.90
5027;DHT22;2532;52.480;13.354;2022-08-20T01:13:37;22.10;99.90
5027;DHT22;2532;52.480;13.354;2022-08-20T01:16:10;22.10;99.90
5027;DHT22;2532;52.480;13.354;2022-08-20T01:18:38;22.10;99.90
5027;DHT22;2532;52.480;13.354;2022-08-20T01:21:07;22.20;99.90
5027;DHT22;2532;52.480;13.354;2022-08-20T01:23:41;22.20;99.90
5027;DHT22;2532;52.480;13.354;2022-08-20T01:26:13;22.20;99.90
5027;DHT22;2532;52.480;13.354;2022-08-20T01:28:43;22.20;99.90
5027;DHT22;2532;52.480;13.354;2022-08-20T01:31:12;22.20;99.90
5027;DHT22;2532;52.480;13.354;2022-08-20T01:33:40;22.20;99.90
5027;DHT22;2532;52.480;13.354;2022-08-20T01:36:08;22.20;99.90
5027;DHT22;2532;52.480;13.354;2022-08-20T01:38:36;22.20;99.90
5027;DHT22;2532;52.480;13.354;2022-08-20T01:41:23;22.20;99.90
5027;DHT22;2532;52.480;13.354;2022-08-20T01:43:52;22.20;99.90
5027;DHT22;2532;52.480;13.354;2022-08-20T01:46:22;22.20;99.90
5027;DHT22;2532;52.480;13.354;2022-08-20T01:48:52;22.20;99.90
5027;DHT22;2532;52.480;13.354;2022-08-20T01:51:23;22.20;99.90
5027;DHT22;2532;52.480;13.354;2022-08-20T01:53:52;22.10;99.90
5027;DHT22;2532;52.480;13.354;2022-08-20T01:56:24;22.10;99.90
5027;DHT22;2532;52.480;13.354;2022-08-20T01:58:52;22.00;99.90
5027;DHT22;2532;52.480;13.354;2022-08-20T02:01:23;21.90;99.90
5027;DHT22;2532;52.480;13.354;2022-08-20T02:03:51;21.80;99.90
5027;DHT22;2532;52.480;13.354;2022-08-20T02:06:19;21.80;99.90
5027;DHT22;2532;52.480;13.354;2022-08-20T02:08:51;21.70;99.90
5027;DHT22;2532;52.480;13.354;2022-08-20T02:11:19;21.60;99.90
5027;DHT22;2532;52.480;13.354;2022-08-20T02:13:48;21.60;99.90
5027;DHT22;2532;52.480;13.354;2022-08-20T02:16:18;21.50;99.90
5027;DHT22;2532;52.480;13.354;2022-08-20T02:18:47;21.50;99.90
5027;DHT22;2532;52.480;13.354;2022-08-20T02:21:15;21.50;99.90
5027;DHT22;2532;52.480;13.354;2022-08-20T02:23:41;21.50;99.90
5027;DHT22;2532;52.480;13.354;2022-08-20T02:26:08;21.50;99.90
5027;DHT22;2532;52.480;13.354;2022-08-20T02:28:35;21.50;99.90
5027;DHT22;2532;52.480;13.354;2022-08-20T02:31:04;21.60;99.90
5027;DHT22;2532;52.480;13.354;2022-08-20T02:33:33;21.50;99.90
5027;DHT22;2532;52.480;13.354;2022-08-20T02:36:00;21.50;99.90
5027;DHT22;2532;52.480;13.354;2022-08-20T02:38:27;21.50;99.90
5027;DHT22;2532;52.480;13.354;2022-08-20T02:40:54;21.50;99.90
5027;DHT22;2532;52.480;13.354;2022-08-20T02:43:21;21.50;99.90
5027;DHT22;2532;52.480;13.354;2022-08-20T02:45:48;21.50;99.90
5027;DHT22;2532;52.480;13.354;2022-08-20T02:48:19;21.50;99.90
5027;DHT22;2532;52.480;13.354;2022-08-20T02:50:50;21.50;99.90
5027;DHT22;2532;52.480;13.354;2022-08-20T02:53:17;21.60;99.90
5027;DHT22;2532;52.480;13.354;2022-08-20T02:55:44;21.60;99.90
5027;DHT22;2532;52.480;13.354;2022-08-20T02:58:12;21.70;99.90
5027;DHT22;2532;52.480;13.354;2022-08-20T03:00:39;21.70;99.90
5027;DHT22;2532;52.480;13.354;2022-08-20T03:03:07;21.70;99.90
5027;DHT22;2532;52.480;13.354;2022-08-20T03:05:38;21.70;99.90
5027;DHT22;2532;52.480;13.354;2022-08-20T03:08:07;21.70;99.90
5027;DHT22;2532;52.480;13.354;2022-08-20T03:10:35;21.60;99.90
5027;DHT22;2532;52.480;13.354;2022-08-20T03:13:03;21.70;99.90
5027;DHT22;2532;52.480;13.354;2022-08-20T03:15:32;21.60;99.90
5027;DHT22;2532;52.480;13.354;2022-08-20T03:17:59;21.60;99.90
5027;DHT22;2532;52.480;13.354;2022-08-20T03:20:27;21.60;99.90
5027;DHT22;2532;52.480;13.354;2022-08-20T03:22:56;21.70;99.90
5027;DHT22;2532;52.480;13.354;2022-08-20T03:25:23;21.70;99.90
5027;DHT22;2532;52.480;13.354;2022-08-20T03:27:50;21.70;99.90
5027;DHT22;2532;52.480;13.354;2022-08-20T03:30:17;21.60;99.90
5027;DHT22;2532;52.480;13.354;2022-08-20T03:32:44;21.60;99.90
5027;DHT22;2532;52.480;13.354;2022-08-20T03:35:14;21.60;99.90
5027;DHT22;2532;52.480;13.354;2022-08-20T03:37:42;21.60;99.90
5027;DHT22;2532;52.480;13.354;2022-08-20T03:40:15;21.60;99.90
5027;DHT22;2532;52.480;13.354;2022-08-20T03:42:42;21.70;99.90
5027;DHT22;2532;52.480;13.354;2022-08-20T03:45:10;21.60;99.90
5027;DHT22;2532;52.480;13.354;2022-08-20T03:47:38;21.70;99.90
5027;DHT22;2532;52.480;13.354;2022-08-20T03:50:07;21.70;99.90
5027;DHT22;2532;52.480;13.354;2022-08-20T03:52:35;21.70;99.90
5027;DHT22;2532;52.480;13.354;2022-08-20T03:55:04;21.70;99.90
5027;DHT22;2532;52.480;13.354;2022-08-20T03:57:32;21.70;99.90
5027;DHT22;2532;52.480;13.354;2022-08-20T04:00:00;21.70;99.90
5027;DHT22;2532;52.480;13.354;2022-08-20T04:02:27;21.70;99.90
5027;DHT22;2532;52.480;13.354;2022-08-20T04:04:54;21.80;99.90
5027;DHT22;2532;52.480;13.354;2022-08-20T04:07:24;21.70;99.90
5027;DHT22;2532;52.480;13.354;2022-08-20T04:09:51;21.70;99.90
5027;DHT22;2532;52.480;13.354;2022-08-20T04:12:18;21.70;99.90
5027;DHT22;2532;52.480;13.354;2022-08-20T04:14:47;21.70;99.90
5027;DHT22;2532;52.480;13.354;2022-08-20T04:17:15;21.70;99.90
5027;DHT22;2532;52.480;13.354;2022-08-20T04:19:42;21.70;99.90
5027;DHT22;2532;52.480;13.354;2022-08-20T04:22:09;21.70;99.90
5027;DHT22;2532;52.480;13.354;2022-08-20T04:24:38;21.70;99.90
5027;DHT22;2532;52.480;13.354;2022-08-20T04:27:05;21.70;99.90
5027;DHT22;2532;52.480;13.354;2022-08-20T04:29:34;21.70;99.90
5027;DHT22;2532;52.480;13.354;2022-08-20T04:32:03;21.70;99.90
5027;DHT22;2532;52.480;13.354;2022-08-20T04:34:30;21.80;99.90
5027;DHT22;2532;52.480;13.354;2022-08-20T04:36:57;21.80;99.90
5027;DHT22;2532;52.480;13.354;2022-08-20T04:39:24;21.80;99.90
5027;DHT22;2532;52.480;13.354;2022-08-20T04:41:51;21.80;99.90
5027;DHT22;2532;52.480;13.354;2022-08-20T04:44:17;21.80;99.90
5027;DHT22;2532;52.480;13.354;2022-08-20T04:46:46;21.80;99.90
5027;DHT22;2532;52.480;13.354;2022-08-20T04:49:14;21.80;99.90
5027;DHT22;2532;52.480;13.354;2022-08-20T04:51:41;21.80;99.90
5027;DHT22;2532;52.480;13.354;2022-08-20T04:54:08;21.80;99.90
5027;DHT22;2532;52.480;13.354;2022-08-20T04:56:36;21.80;99.90
5027;DHT22;2532;52.480;13.354;2022-08-20T04:59:05;21.90;99.90
5027;DHT22;2532;52.480;13.354;2022-08-20T05:01:32;21.80;99.90
5027;DHT22;2532;52.480;13.354;2022-08-20T05:03:59;21.80;99.90
5027;DHT22;2532;52.480;13.354;2022-08-20T05:06:30;21.90;99.90
5027;DHT22;2532;52.480;13.354;2022-08-20T05:08:58;21.80;99.90
5027;DHT22;2532;52.480;13.354;2022-08-20T05:11:26;21.80;99.90
5027;DHT22;2532;52.480;13.354;2022-08-20T05:13:53;21.80;99.90
5027;DHT22;2532;52.480;13.354;2022-08-20T05:16:20;21.70;99.90
5027;DHT22;2532;52.480;13.354;2022-08-20T05:18:48;21.70;99.90
5027;DHT22;2532;52.480;13.354;2022-08-20T05:21:16;21.70;99.90
5027;DHT22;2532;52.480;13.354;2022-08-20T05:23:45;21.70;99.90
5027;DHT22;2532;52.480;13.354;2022-08-20T05:26:12;21.70;99.90
5027;DHT22;2532;52.480;13.354;2022-08-20T05:28:40;21.70;99.90
5027;DHT22;2532;52.480;13.354;2022-08-20T05:31:07;21.70;99.90
5027;DHT22;2532;52.480;13.354;2022-08-20T05:33:35;21.80;99.90
5027;DHT22;2532;52.480;13.354;2022-08-20T05:36:04;21.70;99.90
5027;DHT22;2532;52.480;13.354;2022-08-20T05:38:33;21.80;99.90
5027;DHT22;2532;52.480;13.354;2022-08-20T05:41:02;21.80;99.90
5027;DHT22;2532;52.480;13.354;2022-08-20T05:43:30;21.80;99.90
5027;DHT22;2532;52.480;13.354;2022-08-20T05:45:59;21.70;99.90
5027;DHT22;2532;52.480;13.354;2022-08-20T05:48:26;21.70;99.90
5027;DHT22;2532;52.480;13.354;2022-08-20T05:50:53;21.70;99.90
5027;DHT22;2532;52.480;13.354;2022-08-20T05:53:22;21.80;99.90
5027;DHT22;2532;52.480;13.354;2022-08-20T05:55:50;21.80;99.90
5027;DHT22;2532;52.480;13.354;2022-08-20T05:58:20;21.80;99.90
5027;DHT22;2532;52.480;13.354;2022-08-20T06:00:48;21.70;99.90
5027;DHT22;2532;52.480;13.354;2022-08-20T06:03:15;21.70;99.90
5027;DHT22;2532;52.480;13.354;2022-08-20T06:06:00;21.70;99.90
5027;DHT22;2532;52.480;13.354;2022-08-20T06:08:27;21.80;99.90
5027;DHT22;2532;52.480;13.354;2022-08-20T06:10:54;21.80;99.90
5027;DHT22;2532;52.480;13.354;2022-08-20T06:13:23;21.80;99.90
5027;DHT22;2532;52.480;13.354;2022-08-20T06:15:50;21.80;99.90
5027;DHT22;2532;52.480;13.354;2022-08-20T06:18:17;21.80;99.90
5027;DHT22;2532;52.480;13.354;2022-08-20T06:20:44;21.90;99.90
5027;DHT22;2532;52.480;13.354;2022-08-20T06:23:11;21.90;99.90
5027;DHT22;2532;52.480;13.354;2022-08-20T06:25:39;21.90;99.90
5027;DHT22;2532;52.480;13.354;2022-08-20T06:28:06;21.90;99.90
5027;DHT22;2532;52.480;13.354;2022-08-20T06:30:34;21.90;99.90
5027;DHT22;2532;52.480;13.354;2022-08-20T06:33:01;21.90;99.90
5027;DHT22;2532;52.480;13.354;2022-08-20T06:35:28;22.00;99.90
5027;DHT22;2532;52.480;13.354;2022-08-20T06:37:55;22.00;99.90
5027;DHT22;2532;52.480;13.354;2022-08-20T06:40:26;22.10;99.90
5027;DHT22;2532;52.480;13.354;2022-08-20T06:42:53;22.00;99.90
5027;DHT22;2532;52.480;13.354;2022-08-20T06:45:22;22.10;99.90
5027;DHT22;2532;52.480;13.354;2022-08-20T06:47:52;22.00;99.90
5027;DHT22;2532;52.480;13.354;2022-08-20T06:50:22;22.10;99.90
5027;DHT22;2532;52.480;13.354;2022-08-20T06:52:49;22.00;99.90
5027;DHT22;2532;52.480;13.354;2022-08-20T06:55:16;22.00;99.90
5027;DHT22;2532;52.480;13.354;2022-08-20T06:57:43;21.90;99.90
5027;DHT22;2532;52.480;13.354;2022-08-20T07:00:14;21.90;99.90
5027;DHT22;2532;52.480;13.354;2022-08-20T07:02:41;22.00;99.90
5027;DHT22;2532;52.480;13.354;2022-08-20T07:05:10;21.90;99.90
5027;DHT22;2532;52.480;13.354;2022-08-20T07:07:37;21.90;99.90
5027;DHT22;2532;52.480;13.354;2022-08-20T07:10:06;22.00;99.90
5027;DHT22;2532;52.480;13.354;2022-08-20T07:12:33;21.90;99.90
5027;DHT22;2532;52.480;13.354;2022-08-20T07:15:01;21.90;99.90
5027;DHT22;2532;52.480;13.354;2022-08-20T07:17:28;21.90;99.90
5027;DHT22;2532;52.480;13.354;2022-08-20T07:19:55;21.90;99.90
5027;DHT22;2532;52.480;13.354;2022-08-20T07:22:24;21.90;99.90
5027;DHT22;2532;52.480;13.354;2022-08-20T07:24:51;21.90;99.90
5027;DHT22;2532;52.480;13.354;2022-08-20T07:27:22;22.00;99.90
5027;DHT22;2532;52.480;13.354;2022-08-20T07:29:51;22.00;99.90
5027;DHT22;2532;52.480;13.354;2022-08-20T07:32:35;22.00;99.90
5027;DHT22;2532;52.480;13.354;2022-08-20T07:35:04;22.00;99.90
5027;DHT22;2532;52.480;13.354;2022-08-20T07:37:36;22.00;99.90
5027;DHT22;2532;52.480;13.354;2022-08-20T07:40:05;22.10;99.90
5027;DHT22;2532;52.480;13.354;2022-08-20T07:42:32;22.00;99.90
5027;DHT22;2532;52.480;13.354;2022-08-20T07:44:59;22.00;99.90
5027;DHT22;2532;52.480;13.354;2022-08-20T07:47:27;22.00;99.90
5027;DHT22;2532;52.480;13.354;2022-08-20T07:49:53;22.00;99.90
5027;DHT22;2532;52.480;13.354;2022-08-20T07:52:20;22.10;99.90
5027;DHT22;2532;52.480;13.354;2022-08-20T07:54:48;22.10;99.90
5027;DHT22;2532;52.480;13.354;2022-08-20T07:57:15;22.10;99.90
5027;DHT22;2532;52.480;13.354;2022-08-20T07:59:43;22.10;99.90
5027;DHT22;2532;52.480;13.354;2022-08-20T08:02:11;22.10;99.90
5027;DHT22;2532;52.480;13.354;2022-08-20T08:04:38;22.10;99.90
5027;DHT22;2532;52.480;13.354;2022-08-20T08:07:05;22.10;99.90
5027;DHT22;2532;52.480;13.354;2022-08-20T08:09:33;22.10;99.90
5027;DHT22;2532;52.480;13.354;2022-08-20T08:12:02;22.10;99.90
5027;DHT22;2532;52.480;13.354;2022-08-20T08:14:32;22.00;99.90
5027;DHT22;2532;52.480;13.354;2022-08-20T08:17:02;22.00;99.90
5027;DHT22;2532;52.480;13.354;2022-08-20T08:19:34;21.90;99.90
5027;DHT22;2532;52.480;13.354;2022-08-20T08:22:04;21.90;99.90
5027;DHT22;2532;52.480;13.354;2022-08-20T08:24:32;22.00;99.90
5027;DHT22;2532;52.480;13.354;2022-08-20T08:26:59;21.90;99.90
5027;DHT22;2532;52.480;13.354;2022-08-20T08:29:27;21.90;99.90
5027;DHT22;2532;52.480;13.354;2022-08-20T08:31:54;21.90;99.90
5027;DHT22;2532;52.480;13.354;2022-08-20T08:34:21;21.90;99.90
5027;DHT22;2532;52.480;13.354;2022-08-20T08:36:50;21.90;99.90
5027;DHT22;2532;52.480;13.354;2022-08-20T08:39:17;22.00;99.90
5027;DHT22;2532;52.480;13.354;2022-08-20T08:41:47;21.90;99.90
5027;DHT22;2532;52.480;13.354;2022-08-20T08:44:17;22.00;99.90
5027;DHT22;2532;52.480;13.354;2022-08-20T08:46:51;22.00;99.90
5027;DHT22;2532;52.480;13.354;2022-08-20T08:49:22;22.00;99.90
5027;DHT22;2532;52.480;13.354;2022-08-20T08:51:53;22.00;99.90
5027;DHT22;2532;52.480;13.354;2022-08-20T08:54:26;22.00;99.90
5027;DHT22;2532;52.480;13.354;2022-08-20T08:56:54;22.00;99.90
5027;DHT22;2532;52.480;13.354;2022-08-20T08:59:21;22.10;99.90
5027;DHT22;2532;52.480;13.354;2022-08-20T09:01:52;22.10;99.90
5027;DHT22;2532;52.480;13.354;2022-08-20T09:04:20;22.20;99.90
5027;DHT22;2532;52.480;13.354;2022-08-20T09:06:48;22.20;99.90
5027;DHT22;2532;52.480;13.354;2022-08-20T09:09:20;22.30;99.90
5027;DHT22;2532;52.480;13.354;2022-08-20T09:11:52;22.40;99.90
5027;DHT22;2532;52.480;13.354;2022-08-20T09:14:19;22.50;99.90
5027;DHT22;2532;52.480;13.354;2022-08-20T09:16:51;22.50;99.90
5027;DHT22;2532;52.480;13.354;2022-08-20T09:19:18;22.60;99.90
5027;DHT22;2532;52.480;13.354;2022-08-20T09:21:44;22.60;99.90
5027;DHT22;2532;52.480;13.354;2022-08-20T09:24:11;22.60;99.90
5027;DHT22;2532;52.480;13.354;2022-08-20T09:26:38;22.60;99.90
5027;DHT22;2532;52.480;13.354;2022-08-20T09:29:05;22.70;99.90
5027;DHT22;2532;52.480;13.354;2022-08-20T09:31:32;22.70;99.90
5027;DHT22;2532;52.480;13.354;2022-08-20T09:34:00;22.70;99.90
5027;DHT22;2532;52.480;13.354;2022-08-20T09:36:27;22.70;99.90
5027;DHT22;2532;52.480;13.354;2022-08-20T09:38:54;22.60;99.90
5027;DHT22;2532;52.480;13.354;2022-08-20T09:41:21;22.70;99.90
5027;DHT22;2532;52.480;13.354;2022-08-20T09:43:47;22.80;99.90
5027;DHT22;2532;52.480;13.354;2022-08-20T09:46:14;22.80;99.90
5027;DHT22;2532;52.480;13.354;2022-08-20T09:48:41;22.80;99.90
5027;DHT22;2532;52.480;13.354;2022-08-20T09:51:09;22.80;99.90
5027;DHT22;2532;52.480;13.354;2022-08-20T09:53:36;22.90;99.90
5027;DHT22;2532;52.480;13.354;2022-08-20T09:56:03;22.90;99.90
5027;DHT22;2532;52.480;13.354;2022-08-20T09:58:34;23.00;99.90
5027;DHT22;2532;52.480;13.354;2022-08-20T10:01:06;23.00;99.90
5027;DHT22;2532;52.480;13.354;2022-08-20T10:03:33;23.00;99.90
5027;DHT22;2532;52.480;13.354;2022-08-20T10:06:00;23.00;99.90
5027;DHT22;2532;52.480;13.354;2022-08-20T10:08:28;23.00;99.90
5027;DHT22;2532;52.480;13.354;2022-08-20T10:10:55;23.10;99.70
5027;DHT22;2532;52.480;13.354;2022-08-20T10:13:22;23.10;99.50
5027;DHT22;2532;52.480;13.354;2022-08-20T10:15:49;23.10;99.40
5027;DHT22;2532;52.480;13.354;2022-08-20T10:18:16;23.10;99.30
5027;DHT22;2532;52.480;13.354;2022-08-20T10:20:43;23.10;99.30
5027;DHT22;2532;52.480;13.354;2022-08-20T10:23:09;23.20;99.20
5027;DHT22;2532;52.480;13.354;2022-08-20T10:25:38;23.10;98.50
5027;DHT22;2532;52.480;13.354;2022-08-20T10:28:04;23.20;98.70
5027;DHT22;2532;52.480;13.354;2022-08-20T10:30:32;23.20;98.80
5027;DHT22;2532;52.480;13.354;2022-08-20T10:32:59;23.30;98.50
5027;DHT22;2532;52.480;13.354;2022-08-20T10:35:25;23.20;98.40
5027;DHT22;2532;52.480;13.354;2022-08-20T10:37:52;23.20;97.90
5027;DHT22;2532;52.480;13.354;2022-08-20T10:40:19;23.30;98.10
5027;DHT22;2532;52.480;13.354;2022-08-20T10:42:47;23.30;98.10
5027;DHT22;2532;52.480;13.354;2022-08-20T10:45:15;23.30;97.90
5027;DHT22;2532;52.480;13.354;2022-08-20T10:47:42;23.30;97.80
5027;DHT22;2532;52.480;13.354;2022-08-20T10:50:11;23.30;97.60
5027;DHT22;2532;52.480;13.354;2022-08-20T10:52:39;23.40;97.50
5027;DHT22;2532;52.480;13.354;2022-08-20T10:55:06;23.40;97.10
5027;DHT22;2532;52.480;13.354;2022-08-20T10:57:33;23.40;96.50
5027;DHT22;2532;52.480;13.354;2022-08-20T11:00:04;23.50;96.60
5027;DHT22;2532;52.480;13.354;2022-08-20T11:02:32;23.50;95.90
5027;DHT22;2532;52.480;13.354;2022-08-20T11:04:59;23.50;95.70
5027;DHT22;2532;52.480;13.354;2022-08-20T11:07:28;23.50;95.80
5027;DHT22;2532;52.480;13.354;2022-08-20T11:09:56;23.60;96.00
5027;DHT22;2532;52.480;13.354;2022-08-20T11:12:24;23.60;95.60
5027;DHT22;2532;52.480;13.354;2022-08-20T11:14:52;23.50;95.30
5027;DHT22;2532;52.480;13.354;2022-08-20T11:17:22;23.50;95.40
5027;DHT22;2532;52.480;13.354;2022-08-20T11:19:50;23.60;95.70
5027;DHT22;2532;52.480;13.354;2022-08-20T11:22:17;23.60;95.40
5027;DHT22;2532;52.480;13.354;2022-08-20T11:24:45;23.60;95.20
5027;DHT22;2532;52.480;13.354;2022-08-20T11:27:23;23.60;95.10
5027;DHT22;2532;52.480;13.354;2022-08-20T11:29:51;23.70;95.20
5027;DHT22;2532;52.480;13.354;2022-08-20T11:32:21;23.70;94.90
5027;DHT22;2532;52.480;13.354;2022-08-20T11:34:48;23.70;94.80
5027;DHT22;2532;52.480;13.354;2022-08-20T11:37:17;23.70;94.60
5027;DHT22;2532;52.480;13.354;2022-08-20T11:39:45;23.70;94.30
5027;DHT22;2532;52.480;13.354;2022-08-20T11:42:12;23.70;94.20
5027;DHT22;2532;52.480;13.354;2022-08-20T11:44:38;23.70;94.10
5027;DHT22;2532;52.480;13.354;2022-08-20T11:47:06;23.70;94.00
5027;DHT22;2532;52.480;13.354;2022-08-20T11:49:35;23.80;93.40
5027;DHT22;2532;52.480;13.354;2022-08-20T11:52:03;23.70;93.30
5027;DHT22;2532;52.480;13.354;2022-08-20T11:54:30;23.80;93.40
5027;DHT22;2532;52.480;13.354;2022-08-20T11:56:58;23.80;93.40
5027;DHT22;2532;52.480;13.354;2022-08-20T11:59:25;23.70;92.50
5027;DHT22;2532;52.480;13.354;2022-08-20T12:01:53;23.80;92.70
5027;DHT22;2532;52.480;13.354;2022-08-20T12:04:20;23.90;92.70
5027;DHT22;2532;52.480;13.354;2022-08-20T12:06:48;23.80;92.70
5027;DHT22;2532;52.480;13.354;2022-08-20T12:09:15;23.80;92.80
5027;DHT22;2532;52.480;13.354;2022-08-20T12:11:43;23.90;93.10
5027;DHT22;2532;52.480;13.354;2022-08-20T12:14:10;23.90;93.20
5027;DHT22;2532;52.480;13.354;2022-08-20T12:16:37;24.00;93.30
5027;DHT22;2532;52.480;13.354;2022-08-20T12:19:04;24.00;92.80
5027;DHT22;2532;52.480;13.354;2022-08-20T12:21:31;24.00;92.70
5027;DHT22;2532;52.480;13.354;2022-08-20T12:23:59;24.00;92.50
5027;DHT22;2532;52.480;13.354;2022-08-20T12:26:26;24.00;92.20
5027;DHT22;2532;52.480;13.354;2022-08-20T12:28:53;24.00;92.00
5027;DHT22;2532;52.480;13.354;2022-08-20T12:31:20;23.90;91.60
5027;DHT22;2532;52.480;13.354;2022-08-20T12:33:47;23.90;91.80
5027;DHT22;2532;52.480;13.354;2022-08-20T12:36:14;23.90;91.60
5027;DHT22;2532;52.480;13.354;2022-08-20T12:38:40;24.00;91.80
5027;DHT22;2532;52.480;13.354;2022-08-20T12:41:09;24.00;91.70
5027;DHT22;2532;52.480;13.354;2022-08-20T12:43:36;24.10;91.60
5027;DHT22;2532;52.480;13.354;2022-08-20T12:46:03;24.10;91.70
5027;DHT22;2532;52.480;13.354;2022-08-20T12:48:29;24.00;91.70
5027;DHT22;2532;52.480;13.354;2022-08-20T12:50:56;24.10;92.00
5027;DHT22;2532;52.480;13.354;2022-08-20T12:53:23;24.10;92.30
5027;DHT22;2532;52.480;13.354;2022-08-20T12:55:50;24.20;92.30
5027;DHT22;2532;52.480;13.354;2022-08-20T12:58:18;24.20;92.50
5027;DHT22;2532;52.480;13.354;2022-08-20T13:00:46;24.20;92.60
5027;DHT22;2532;52.480;13.354;2022-08-20T13:03:12;24.10;92.50
5027;DHT22;2532;52.480;13.354;2022-08-20T13:05:40;24.10;92.80
5027;DHT22;2532;52.480;13.354;2022-08-20T13:08:08;24.10;92.80
5027;DHT22;2532;52.480;13.354;2022-08-20T13:10:37;24.10;92.90
5027;DHT22;2532;52.480;13.354;2022-08-20T13:13:08;24.10;92.90
5027;DHT22;2532;52.480;13.354;2022-08-20T13:15:37;24.10;92.80
5027;DHT22;2532;52.480;13.354;2022-08-20T13:18:05;24.00;92.90
5027;DHT22;2532;52.480;13.354;2022-08-20T13:20:33;23.90;92.90
5027;DHT22;2532;52.480;13.354;2022-08-20T13:23:00;23.90;92.90
5027;DHT22;2532;52.480;13.354;2022-08-20T13:25:27;23.80;93.10
5027;DHT22;2532;52.480;13.354;2022-08-20T13:27:57;23.80;93.10
5027;DHT22;2532;52.480;13.354;2022-08-20T13:30:25;23.70;93.30
5027;DHT22;2532;52.480;13.354;2022-08-20T13:32:54;23.70;93.30
5027;DHT22;2532;52.480;13.354;2022-08-20T13:35:21;23.60;93.50
5027;DHT22;2532;52.480;13.354;2022-08-20T13:37:48;23.70;93.80
5027;DHT22;2532;52.480;13.354;2022-08-20T13:40:16;23.60;94.00
5027;DHT22;2532;52.480;13.354;2022-08-20T13:42:43;23.60;94.40
5027;DHT22;2532;52.480;13.354;2022-08-20T13:45:10;23.50;94.70
5027;DHT22;2532;52.480;13.354;2022-08-20T13:47:39;23.40;95.00
5027;DHT22;2532;52.480;13.354;2022-08-20T13:50:10;23.30;95.20
5027;DHT22;2532;52.480;13.354;2022-08-20T13:52:38;23.30;95.60
5027;DHT22;2532;52.480;13.354;2022-08-20T13:55:07;23.20;96.00
5027;DHT22;2532;52.480;13.354;2022-08-20T13:57:34;23.10;96.10
5027;DHT22;2532;52.480;13.354;2022-08-20T14:00:09;23.10;96.50
5027;DHT22;2532;52.480;13.354;2022-08-20T14:02:37;23.00;97.00
5027;DHT22;2532;52.480;13.354;2022-08-20T14:05:04;23.00;96.90
5027;DHT22;2532;52.480;13.354;2022-08-20T14:07:33;23.00;97.30
5027;DHT22;2532;52.480;13.354;2022-08-20T14:10:02;22.90;97.60
5027;DHT22;2532;52.480;13.354;2022-08-20T14:12:29;22.90;97.90
5027;DHT22;2532;52.480;13.354;2022-08-20T14:14:56;22.90;97.90
5027;DHT22;2532;52.480;13.354;2022-08-20T14:17:26;22.80;97.90
5027;DHT22;2532;52.480;13.354;2022-08-20T14:19:56;22.80;98.20
5027;DHT22;2532;52.480;13.354;2022-08-20T14:22:24;22.80;98.20
5027;DHT22;2532;52.480;13.354;2022-08-20T14:24:52;22.70;98.40
5027;DHT22;2532;52.480;13.354;2022-08-20T14:27:21;22.70;98.40
5027;DHT22;2532;52.480;13.354;2022-08-20T14:29:49;22.70;98.40
5027;DHT22;2532;52.480;13.354;2022-08-20T14:32:16;22.60;98.50
5027;DHT22;2532;52.480;13.354;2022-08-20T14:34:43;22.60;98.70
5027;DHT22;2532;52.480;13.354;2022-08-20T14:37:12;22.40;98.80
5027;DHT22;2532;52.480;13.354;2022-08-20T14:39:41;22.60;99.10
5027;DHT22;2532;52.480;13.354;2022-08-20T14:42:10;22.60;99.20
5027;DHT22;2532;52.480;13.354;2022-08-20T14:44:37;22.70;99.10
5027;DHT22;2532;52.480;13.354;2022-08-20T14:47:12;22.70;99.00
5027;DHT22;2532;52.480;13.354;2022-08-20T14:49:40;22.80;99.10
5027;DHT22;2532;52.480;13.354;2022-08-20T14:52:07;22.90;99.30
5027;DHT22;2532;52.480;13.354;2022-08-20T14:54:34;22.90;99.20
5027;DHT22;2532;52.480;13.354;2022-08-20T14:57:01;22.90;98.90
5027;DHT22;2532;52.480;13.354;2022-08-20T14:59:30;23.00;99.00
5027;DHT22;2532;52.480;13.354;2022-08-20T15:01:57;23.00;99.30
5027;DHT22;2532;52.480;13.354;2022-08-20T15:04:24;23.00;99.30
5027;DHT22;2532;52.480;13.354;2022-08-20T15:06:51;23.00;99.30
5027;DHT22;2532;52.480;13.354;2022-08-20T15:09:18;23.10;99.10
5027;DHT22;2532;52.480;13.354;2022-08-20T15:11:45;23.00;98.60
5027;DHT22;2532;52.480;13.354;2022-08-20T15:14:12;23.10;98.60
5027;DHT22;2532;52.480;13.354;2022-08-20T15:16:40;23.10;98.50
5027;DHT22;2532;52.480;13.354;2022-08-20T15:19:07;23.10;98.60
5027;DHT22;2532;52.480;13.354;2022-08-20T15:21:34;23.10;98.90
5027;DHT22;2532;52.480;13.354;2022-08-20T15:24:01;23.10;98.60
5027;DHT22;2532;52.480;13.354;2022-08-20T15:26:29;23.10;98.70
5027;DHT22;2532;52.480;13.354;2022-08-20T15:28:56;23.10;98.80
5027;DHT22;2532;52.480;13.354;2022-08-20T15:31:23;23.00;98.80
5027;DHT22;2532;52.480;13.354;2022-08-20T15:33:51;23.00;98.90
5027;DHT22;2532;52.480;13.354;2022-08-20T15:36:18;23.10;99.20
5027;DHT22;2532;52.480;13.354;2022-08-20T15:38:45;23.10;99.20
5027;DHT22;2532;52.480;13.354;2022-08-20T15:41:12;23.10;99.20
5027;DHT22;2532;52.480;13.354;2022-08-20T15:43:39;23.20;99.30
5027;DHT22;2532;52.480;13.354;2022-08-20T15:46:06;23.20;99.30
5027;DHT22;2532;52.480;13.354;2022-08-20T15:48:35;23.30;99.40
5027;DHT22;2532;52.480;13.354;2022-08-20T15:51:14;23.30;99.20